Trans Sea — 9HA2564 — position and weather

sailwx.info

Track history (hours):
 
Tides and Currents Weather Stations Pressure Air Temp Water Temp Dewpoint Dewpoint Depression Visibility Wind Speed Wind Dir Waves Ship Positions

Trans Sea

Last reported at 2016-Feb-11 10:31 UTC. Time now 2016-Feb-11 15:03 UTC.
Position N 38°40' E 008°45'.

Length 107 m; draft 7 m.

Type: Ship (hazmat cat B). MMSI: 248887000.

Date/timePositionNaut miles runAvg speedWind from/ knotsBaromVisibWave heightAir tempDewpointWater temp
2016-Feb-11 10:31N 38°40' E 008°45'27313.0
2016-Feb-10 13:33N 40°28' E 003°20'1313.1
2016-Feb-10 12:33N 40°33' E 003°04'1313.3
2016-Feb-10 11:33N 40°38' E 002°48'1313.4
2016-Feb-10 10:33N 40°42' E 002°31'1313.4
2016-Feb-10 09:33N 40°47' E 002°15'1313.3
2016-Feb-10 08:34N 40°51' E 001°58'18 0.9
2016-Feb-09 12:33N 41°05' E 001°44'1212.5
2016-Feb-09 11:33N 41°06' E 002°00'1212.3
2016-Feb-09 10:33N 41°11' E 002°15'1312.8
2016-Feb-09 09:33N 41°18' E 002°29'1212.5
2016-Feb-09 08:33N 41°26' E 002°42'1312.1
2016-Feb-09 07:30N 41°33' E 002°56'6112.2
2016-Feb-09 02:32N 42°16' E 003°55'1312.9
2016-Feb-09 01:33N 42°25' E 004°06'1313.1
2016-Feb-09 00:33N 42°35' E 004°17'1313.1
2016-Feb-08 23:33N 42°45' E 004°29'1312.8
2016-Feb-08 22:33N 42°55' E 004°40'1212.3
2016-Feb-08 21:34N 43°04' E 004°51'1211.9
2016-Feb-08 20:34N 43°14' E 005°00'1111.4
2016-Feb-08 19:33N 43°24' E 004°53'2 1.4
2016-Feb-08 18:03N 43°25' E 004°50'0 0.0
2016-Feb-08 15:33N 43°25' E 004°50'0 0.0
2016-Feb-08 14:27N 43°25' E 004°50'0 0.0
2016-Feb-08 13:30N 43°25' E 004°50'0 0.0
2016-Feb-08 12:30N 43°25' E 004°50'0 0.0
2016-Feb-08 10:15N 43°25' E 004°50'0 0.0
2016-Feb-08 08:27N 43°25' E 004°50'0 0.0
2016-Feb-08 03:33N 43°25' E 004°50'0 0.0
2016-Feb-08 02:18N 43°25' E 004°50'0 0.0
2016-Feb-08 01:33N 43°25' E 004°50'0 0.0
2016-Feb-08 00:33N 43°25' E 004°50'0 0.0
2016-Feb-07 16:33N 43°25' E 004°50'0 0.0
2016-Feb-07 15:33N 43°25' E 004°50'0 0.0
2016-Feb-07 14:27N 43°25' E 004°50'0 0.0
2016-Feb-07 11:33N 43°25' E 004°50'0 0.0
2016-Feb-07 10:09N 43°25' E 004°50'0 0.0
2016-Feb-07 08:09N 43°25' E 004°50'0 0.0
2016-Feb-07 07:10N 43°25' E 004°50'2 3.1
2016-Feb-07 06:33N 43°24' E 004°52'1110.5
2016-Feb-07 05:33N 43°16' E 005°01'1111.2
2016-Feb-07 04:34N 43°05' E 004°56'1212.4
2016-Feb-07 03:33N 42°55' E 004°45'1312.4
2016-Feb-07 02:31N 42°45' E 004°34'8912.6
2016-Feb-06 19:30N 41°35' E 003°22'1212.8
2016-Feb-06 18:33N 41°26' E 003°12'1313.1
2016-Feb-06 17:33N 41°15' E 003°01'1313.2
2016-Feb-06 16:33N 41°05' E 002°51'1313.2
2016-Feb-06 15:33N 40°54' E 002°40'1313.1
2016-Feb-06 14:33N 40°44' E 002°30'1313.2
2016-Feb-06 13:33N 40°33' E 002°19'1313.1
2016-Feb-06 12:33N 40°23' E 002°08'1313.0
2016-Feb-06 11:33N 40°13' E 001°58'1313.1
2016-Feb-06 10:33N 40°02' E 001°48'1413.9
2016-Feb-06 09:32N 39°51' E 001°36'15713.1
2016-Feb-05 21:32N 37°44' W 000°22'1313.0
2016-Feb-05 20:33N 37°33' W 000°31'1312.5
2016-Feb-05 19:33N 37°25' W 000°43'1212.4
2016-Feb-05 18:33N 37°17' W 000°54'22210.0
2016-Feb-04 20:29N 36°05' W 005°16'7 0.6
2016-Feb-04 07:06N 36°09' W 005°24'4 7.0
2016-Feb-04 06:33N 36°05' W 005°23'1010.4
2016-Feb-04 05:33N 35°57' W 005°31'  
2016-Feb-01 13:33N 36°54' W 007°06'3113.0
2016-Feb-01 11:09N 36°43' W 007°43'813.5
2016-Feb-01 10:33N 36°41' W 007°53'  
Track history (hours):
 
Tides and Currents Weather Stations Pressure Air Temp Water Temp Dewpoint Dewpoint Depression Visibility Wind Speed Wind Dir Waves Ship Positions

Trans Sea

Last reported at 2016-Feb-11 10:31 UTC. Time now 2016-Feb-11 15:03 UTC.
Position N 38°40' E 008°45'.

Length 107 m; draft 7 m.

Type: Ship (hazmat cat B). MMSI: 248887000.

Date/timePositionNaut miles runAvg speedWind from/ knotsBaromVisibWave heightAir tempDewpointWater temp
2016-Feb-11 10:31N 38°40' E 008°45'27313.0
2016-Feb-10 13:33N 40°28' E 003°20'1313.1
2016-Feb-10 12:33N 40°33' E 003°04'1313.3
2016-Feb-10 11:33N 40°38' E 002°48'1313.4
2016-Feb-10 10:33N 40°42' E 002°31'1313.4
2016-Feb-10 09:33N 40°47' E 002°15'1313.3
2016-Feb-10 08:34N 40°51' E 001°58'18 0.9
2016-Feb-09 12:33N 41°05' E 001°44'1212.5
2016-Feb-09 11:33N 41°06' E 002°00'1212.3
2016-Feb-09 10:33N 41°11' E 002°15'1312.8
2016-Feb-09 09:33N 41°18' E 002°29'1212.5
2016-Feb-09 08:33N 41°26' E 002°42'1312.1
2016-Feb-09 07:30N 41°33' E 002°56'6112.2
2016-Feb-09 02:32N 42°16' E 003°55'1312.9
2016-Feb-09 01:33N 42°25' E 004°06'1313.1
2016-Feb-09 00:33N 42°35' E 004°17'1313.1
2016-Feb-08 23:33N 42°45' E 004°29'1312.8
2016-Feb-08 22:33N 42°55' E 004°40'1212.3
2016-Feb-08 21:34N 43°04' E 004°51'1211.9
2016-Feb-08 20:34N 43°14' E 005°00'1111.4
2016-Feb-08 19:33N 43°24' E 004°53'2 1.4
2016-Feb-08 18:03N 43°25' E 004°50'0 0.0
2016-Feb-08 15:33N 43°25' E 004°50'0 0.0
2016-Feb-08 14:27N 43°25' E 004°50'0 0.0
2016-Feb-08 13:30N 43°25' E 004°50'0 0.0
2016-Feb-08 12:30N 43°25' E 004°50'0 0.0
2016-Feb-08 10:15N 43°25' E 004°50'0 0.0
2016-Feb-08 08:27N 43°25' E 004°50'0 0.0
2016-Feb-08 03:33N 43°25' E 004°50'0 0.0
2016-Feb-08 02:18N 43°25' E 004°50'0 0.0
2016-Feb-08 01:33N 43°25' E 004°50'0 0.0
2016-Feb-08 00:33N 43°25' E 004°50'0 0.0
2016-Feb-07 16:33N 43°25' E 004°50'0 0.0
2016-Feb-07 15:33N 43°25' E 004°50'0 0.0
2016-Feb-07 14:27N 43°25' E 004°50'0 0.0
2016-Feb-07 11:33N 43°25' E 004°50'0 0.0
2016-Feb-07 10:09N 43°25' E 004°50'0 0.0
2016-Feb-07 08:09N 43°25' E 004°50'0 0.0
2016-Feb-07 07:10N 43°25' E 004°50'2 3.1
2016-Feb-07 06:33N 43°24' E 004°52'1110.5
2016-Feb-07 05:33N 43°16' E 005°01'1111.2
2016-Feb-07 04:34N 43°05' E 004°56'1212.4
2016-Feb-07 03:33N 42°55' E 004°45'1312.4
2016-Feb-07 02:31N 42°45' E 004°34'8912.6
2016-Feb-06 19:30N 41°35' E 003°22'1212.8
2016-Feb-06 18:33N 41°26' E 003°12'1313.1
2016-Feb-06 17:33N 41°15' E 003°01'1313.2
2016-Feb-06 16:33N 41°05' E 002°51'1313.2
2016-Feb-06 15:33N 40°54' E 002°40'1313.1
2016-Feb-06 14:33N 40°44' E 002°30'1313.2
2016-Feb-06 13:33N 40°33' E 002°19'1313.1
2016-Feb-06 12:33N 40°23' E 002°08'1313.0
2016-Feb-06 11:33N 40°13' E 001°58'1313.1
2016-Feb-06 10:33N 40°02' E 001°48'1413.9
2016-Feb-06 09:32N 39°51' E 001°36'15713.1
2016-Feb-05 21:32N 37°44' W 000°22'1313.0
2016-Feb-05 20:33N 37°33' W 000°31'1312.5
2016-Feb-05 19:33N 37°25' W 000°43'1212.4
2016-Feb-05 18:33N 37°17' W 000°54'22210.0
2016-Feb-04 20:29N 36°05' W 005°16'7 0.6
2016-Feb-04 07:06N 36°09' W 005°24'4 7.0
2016-Feb-04 06:33N 36°05' W 005°23'1010.4
2016-Feb-04 05:33N 35°57' W 005°31'  
2016-Feb-01 13:33N 36°54' W 007°06'3113.0
2016-Feb-01 11:09N 36°43' W 007°43'813.5
2016-Feb-01 10:33N 36°41' W 007°53'  

Dump ship's entire track history